createdAt,value
2022-08-03T00:00:33.495Z,99143.28
2022-08-03T00:03:01.625Z,99139.38
2022-08-03T00:05:29.465Z,99138.91
2022-08-03T00:07:57.222Z,99134.50
2022-08-03T00:10:26.570Z,99141.09
2022-08-03T00:12:55.044Z,99138.31
2022-08-03T00:15:22.910Z,99137.63
2022-08-03T00:17:53.029Z,99135.50
2022-08-03T00:20:22.255Z,99133.47
2022-08-03T00:22:50.284Z,99138.97
2022-08-03T00:25:19.224Z,99138.78
2022-08-03T00:27:48.620Z,99141.13
2022-08-03T00:30:18.822Z,99135.19
2022-08-03T00:32:47.628Z,99138.63
2022-08-03T00:35:32.568Z,99138.16
2022-08-03T00:38:04.045Z,99131.59
2022-08-03T00:40:31.901Z,99125.13
2022-08-03T00:43:02.124Z,99132.63
2022-08-03T00:45:31.666Z,99131.25
2022-08-03T00:48:00.224Z,99119.34
2022-08-03T00:50:30.871Z,99131.53
2022-08-03T00:53:00.618Z,99128.94
2022-08-03T00:55:28.826Z,99131.44
2022-08-03T00:57:59.430Z,99120.63
2022-08-03T01:00:28.813Z,99124.38
2022-08-03T01:02:56.751Z,99122.94
2022-08-03T01:05:24.733Z,99124.69
2022-08-03T01:08:04.443Z,99126.06
2022-08-03T01:10:40.649Z,99118.88
2022-08-03T01:14:02.389Z,99118.09
2022-08-03T01:16:16.514Z,99118.72
2022-08-03T01:18:48.485Z,99117.56
2022-08-03T01:21:21.924Z,99119.50
2022-08-03T01:24:13.698Z,99117.47
2022-08-03T01:27:03.967Z,99121.84
2022-08-03T01:29:53.260Z,99120.59
2022-08-03T01:33:02.302Z,99131.13
2022-08-03T01:35:17.536Z,99126.41
2022-08-03T01:37:52.772Z,99118.91
2022-08-03T01:40:23.127Z,99120.78
2022-08-03T01:42:52.699Z,99117.03
2022-08-03T01:45:23.577Z,99118.13
2022-08-03T01:47:52.835Z,99118.41
2022-08-03T01:50:23.430Z,99114.66
2022-08-03T01:52:51.462Z,99119.00
2022-08-03T01:55:21.207Z,99114.78
2022-08-03T01:58:05.674Z,99115.56
2022-08-03T02:00:38.269Z,99116.06
2022-08-03T02:03:08.168Z,99115.56
2022-08-03T02:05:37.385Z,99114.63
2022-08-03T02:08:08.558Z,99113.66
2022-08-03T02:10:37.254Z,99117.41
2022-08-03T02:13:07.706Z,99107.84
2022-08-03T02:15:38.519Z,99116.13
2022-08-03T02:18:09.650Z,99103.41
2022-08-03T02:20:39.124Z,99107.53
2022-08-03T02:23:07.521Z,99106.34
2022-08-03T02:25:39.960Z,99101.00
2022-08-03T02:28:11.625Z,99105.56
2022-08-03T02:30:46.819Z,99104.63
2022-08-03T02:33:25.640Z,99101.91
2022-08-03T02:35:55.209Z,99106.75
2022-08-03T02:38:29.126Z,99106.31
2022-08-03T02:40:59.642Z,99103.88
2022-08-03T02:43:27.643Z,99108.41
2022-08-03T02:46:10.727Z,99102.94
2022-08-03T02:48:42.256Z,99102.03
2022-08-03T02:51:10.816Z,99101.97
2022-08-03T02:53:39.985Z,99104.34
2022-08-03T02:56:09.907Z,99108.31
2022-08-03T02:58:39.623Z,99097.56
2022-08-03T03:01:09.171Z,99097.31
2022-08-03T03:03:39.302Z,99095.91
2022-08-03T03:06:15.248Z,99101.84
2022-08-03T03:08:43.647Z,99098.66
2022-08-03T03:11:12.615Z,99099.75
2022-08-03T03:13:41.712Z,99100.78
2022-08-03T03:16:13.941Z,99096.16
2022-08-03T03:18:43.600Z,99107.34
2022-08-03T03:21:12.576Z,99103.56
2022-08-03T03:23:42.420Z,99100.97
2022-08-03T03:26:10.729Z,99097.75
2022-08-03T03:28:38.881Z,99106.66
2022-08-03T03:31:07.861Z,99108.09
2022-08-03T03:33:38.451Z,99114.94
2022-08-03T03:36:06.707Z,99117.91
2022-08-03T03:38:35.187Z,99109.44
2022-08-03T03:41:03.378Z,99118.16
2022-08-03T03:43:31.330Z,99106.41
2022-08-03T03:46:00.360Z,99111.03
2022-08-03T03:48:28.929Z,99118.81
2022-08-03T03:50:59.225Z,99111.72
2022-08-03T03:53:27.049Z,99112.47
2022-08-03T03:55:59.221Z,99111.88
2022-08-03T03:58:32.148Z,99116.09
2022-08-03T04:01:00.250Z,99107.44
2022-08-03T04:03:28.290Z,99106.25
2022-08-03T04:06:13.531Z,99113.31
2022-08-03T04:09:15.119Z,99112.38
2022-08-03T04:11:48.709Z,99120.38
2022-08-03T04:14:21.095Z,99119.44
2022-08-03T04:16:52.850Z,99118.63
2022-08-03T04:19:28.126Z,99119.22
2022-08-03T04:22:00.223Z,99119.56
2022-08-03T04:24:35.073Z,99122.25
2022-08-03T04:27:05.947Z,99117.09
2022-08-03T04:29:36.028Z,99119.31
2022-08-03T04:32:09.185Z,99123.25
2022-08-03T04:34:36.980Z,99116.69
2022-08-03T04:37:11.955Z,99120.69
2022-08-03T04:39:44.107Z,99120.63
2022-08-03T04:42:15.120Z,99122.59
2022-08-03T04:44:45.445Z,99129.47
2022-08-03T04:47:13.238Z,99133.84
2022-08-03T04:49:41.605Z,99133.31
2022-08-03T04:52:10.870Z,99129.25
2022-08-03T04:54:50.601Z,99131.41
2022-08-03T04:57:22.921Z,99132.94
2022-08-03T04:59:58.153Z,99132.31
2022-08-03T05:02:31.055Z,99129.91
2022-08-03T05:04:59.240Z,99138.81
2022-08-03T05:07:35.529Z,99140.09
2022-08-03T05:10:14.682Z,99139.88
2022-08-03T05:12:44.850Z,99139.84
2022-08-03T05:15:13.096Z,99146.47
2022-08-03T05:17:41.716Z,99138.03
2022-08-03T05:20:11.068Z,99139.53
2022-08-03T05:22:38.849Z,99140.84
2022-08-03T05:25:08.777Z,99143.38
2022-08-03T05:27:36.762Z,99144.06
2022-08-03T05:30:30.542Z,99153.09
2022-08-03T05:32:54.416Z,99148.75
2022-08-03T05:35:56.096Z,99143.66
2022-08-03T05:38:10.412Z,99145.06
2022-08-03T05:40:39.823Z,99141.31
2022-08-03T05:43:24.581Z,99146.00
2022-08-03T05:46:11.457Z,99144.28
2022-08-03T05:48:40.249Z,99141.28
2022-08-03T05:51:11.549Z,99138.28
2022-08-03T05:53:40.218Z,99145.44
2022-08-03T05:56:13.542Z,99137.81
2022-08-03T05:58:43.365Z,99139.03
2022-08-03T06:01:11.468Z,99141.19
2022-08-03T06:03:39.592Z,99143.75
2022-08-03T06:06:07.519Z,99133.34
2022-08-03T06:08:36.302Z,99138.94
2022-08-03T06:11:04.783Z,99147.03
2022-08-03T06:13:34.060Z,99139.97
2022-08-03T06:16:02.146Z,99149.22
2022-08-03T06:18:29.935Z,99142.16
2022-08-03T06:20:57.743Z,99146.72
2022-08-03T06:23:53.155Z,99144.16
2022-08-03T06:26:22.833Z,99146.03
2022-08-03T06:28:54.286Z,99141.34
2022-08-03T06:31:24.031Z,99144.69
2022-08-03T06:34:34.447Z,99154.78
2022-08-03T06:36:40.241Z,99156.91
2022-08-03T06:39:08.724Z,99151.88
2022-08-03T06:41:38.031Z,99148.78
2022-08-03T06:44:14.743Z,99156.88
2022-08-03T06:46:43.335Z,99152.16
2022-08-03T06:49:11.327Z,99151.44
2022-08-03T06:52:04.934Z,99155.06
2022-08-03T06:54:27.115Z,99158.50
2022-08-03T06:56:55.400Z,99162.16
2022-08-03T07:00:09.187Z,99171.91
2022-08-03T07:02:12.449Z,99169.72
2022-08-03T07:04:46.997Z,99168.63
2022-08-03T07:07:14.963Z,99172.09
2022-08-03T07:09:42.748Z,99167.44
2022-08-03T07:12:25.332Z,99168.50
2022-08-03T07:15:00.033Z,99176.66
2022-08-03T07:17:29.216Z,99171.53
2022-08-03T07:19:57.104Z,99168.19
2022-08-03T07:22:25.114Z,99168.16
2022-08-03T07:24:52.919Z,99170.75
2022-08-03T07:27:21.235Z,99169.41
2022-08-03T07:29:49.081Z,99174.81
2022-08-03T07:32:18.499Z,99168.44
2022-08-03T07:34:46.607Z,99171.56
2022-08-03T07:37:14.403Z,99169.56
2022-08-03T07:39:42.220Z,99170.81
2022-08-03T07:42:10.120Z,99170.06
2022-08-03T07:44:39.308Z,99168.38
2022-08-03T07:47:07.188Z,99167.31
2022-08-03T07:49:42.251Z,99167.34
2022-08-03T07:52:28.298Z,99162.63
2022-08-03T07:54:57.427Z,99164.00
2022-08-03T07:57:25.276Z,99173.28
2022-08-03T08:00:01.390Z,99167.41
2022-08-03T08:02:39.869Z,99169.25
2022-08-03T08:05:10.768Z,99158.59
2022-08-03T08:07:39.325Z,99160.38
2022-08-03T08:10:08.113Z,99159.47
2022-08-03T08:12:35.958Z,99154.81
2022-08-03T08:15:04.520Z,99152.47
2022-08-03T08:17:32.329Z,99153.78
2022-08-03T08:20:00.139Z,99150.66
2022-08-03T08:22:30.678Z,99138.13
2022-08-03T08:25:01.184Z,99142.53
2022-08-03T08:28:31.372Z,99132.28
2022-08-03T08:30:19.801Z,99135.56
2022-08-03T08:32:48.004Z,99128.88
2022-08-03T08:35:16.473Z,99139.41
2022-08-03T08:37:51.268Z,99133.97
2022-08-03T08:40:22.238Z,99142.66
2022-08-03T08:42:58.472Z,99137.63
2022-08-03T08:45:27.848Z,99142.22
2022-08-03T08:48:01.077Z,99141.47
2022-08-03T08:50:31.178Z,99133.59
2022-08-03T08:53:03.042Z,99127.72
2022-08-03T08:55:58.808Z,99136.28
2022-08-03T08:58:22.565Z,99138.59
2022-08-03T09:00:51.653Z,99137.00
2022-08-03T09:03:26.155Z,99133.91
2022-08-03T09:06:00.359Z,99131.06
2022-08-03T09:08:29.984Z,99121.00
2022-08-03T09:10:57.867Z,99124.88
2022-08-03T09:13:26.237Z,99127.19
2022-08-03T09:16:15.714Z,99125.78
2022-08-03T09:18:45.245Z,99126.78
2022-08-03T09:21:32.541Z,99117.69
2022-08-03T09:24:06.222Z,99111.88
2022-08-03T09:26:38.343Z,99121.91
2022-08-03T09:29:13.160Z,99115.25
2022-08-03T09:31:44.898Z,99096.91
2022-08-03T09:34:15.369Z,99104.44
2022-08-03T09:36:45.716Z,99112.25
2022-08-03T09:39:16.892Z,99110.88
2022-08-03T09:41:47.407Z,99106.94
2022-08-03T09:44:25.761Z,99099.03
2022-08-03T09:46:55.639Z,99090.34
2022-08-03T09:49:24.362Z,99094.59
2022-08-03T09:52:33.195Z,99094.84
2022-08-03T09:54:42.650Z,99094.47
2022-08-03T09:57:21.807Z,99090.59
2022-08-03T09:59:49.773Z,99089.38
2022-08-03T10:02:25.354Z,99079.44
2022-08-03T10:04:54.198Z,99082.47
2022-08-03T10:07:23.682Z,99080.81
2022-08-03T10:09:58.342Z,99075.53
2022-08-03T10:12:48.124Z,99072.50
2022-08-03T10:16:22.878Z,99069.97
2022-08-03T10:18:03.983Z,99065.56
2022-08-03T10:20:34.430Z,99064.31
2022-08-03T10:23:03.884Z,99057.78
2022-08-03T10:25:35.150Z,99064.59
2022-08-03T10:28:05.400Z,99053.13
2022-08-03T10:30:34.244Z,99055.13
2022-08-03T10:33:12.307Z,99045.16
2022-08-03T10:35:58.171Z,99053.66
2022-08-03T10:38:32.187Z,99042.66
2022-08-03T10:41:03.072Z,99033.75
2022-08-03T10:43:37.304Z,99039.00
2022-08-03T10:46:09.050Z,99035.06
2022-08-03T10:48:37.929Z,99038.31
2022-08-03T10:51:07.542Z,99042.53
2022-08-03T10:53:37.468Z,99037.53
2022-08-03T10:56:46.654Z,99030.13
2022-08-03T10:59:12.274Z,99031.75
2022-08-03T11:01:58.589Z,99030.25
2022-08-03T11:04:29.217Z,99016.13
2022-08-03T11:07:22.176Z,99024.31
2022-08-03T11:09:51.753Z,99013.25
2022-08-03T11:12:30.101Z,99021.22
2022-08-03T11:15:00.827Z,99012.84
2022-08-03T11:17:28.443Z,99009.31
2022-08-03T11:19:57.871Z,99017.31
2022-08-03T11:22:28.270Z,99014.63
2022-08-03T11:25:00.251Z,99012.31
2022-08-03T11:27:33.941Z,99008.09
2022-08-03T11:30:05.396Z,98999.31
2022-08-03T11:32:53.064Z,99000.31
2022-08-03T11:35:22.841Z,99006.97
2022-08-03T11:38:12.051Z,99008.59
2022-08-03T11:40:42.815Z,98998.50
2022-08-03T11:43:45.282Z,98994.59
2022-08-03T11:46:28.609Z,99002.06
2022-08-03T11:49:09.942Z,99000.16
2022-08-03T11:51:40.009Z,99001.19
2022-08-03T11:54:08.047Z,98999.97
2022-08-03T11:56:45.882Z,98995.16
2022-08-03T11:59:20.255Z,98994.81
2022-08-03T12:01:48.946Z,98996.41
2022-08-03T12:04:17.189Z,98992.28
2022-08-03T12:06:59.587Z,98976.97
2022-08-03T12:09:27.627Z,98970.47
2022-08-03T12:12:00.435Z,98976.09
2022-08-03T12:14:48.599Z,98970.31
2022-08-03T12:17:18.820Z,98974.56
2022-08-03T12:19:47.084Z,98971.56
2022-08-03T12:22:16.730Z,98969.16
2022-08-03T12:24:46.844Z,98968.38
2022-08-03T12:27:24.502Z,98969.25
2022-08-03T12:29:57.033Z,98956.66
2022-08-03T12:32:27.498Z,98958.31
2022-08-03T12:35:00.070Z,98957.13
2022-08-03T12:37:28.606Z,98951.72
2022-08-03T12:40:01.685Z,98945.66
2022-08-03T12:42:32.503Z,98941.78
2022-08-03T12:45:01.891Z,98941.00
2022-08-03T12:47:29.656Z,98945.59
2022-08-03T12:49:57.393Z,98942.00
2022-08-03T12:52:27.202Z,98946.50
2022-08-03T12:54:59.855Z,98942.22
2022-08-03T12:57:41.750Z,98932.03
2022-08-03T13:00:21.564Z,98939.13
2022-08-03T13:03:38.548Z,98935.75
2022-08-03T13:05:50.054Z,98938.97
2022-08-03T13:08:21.051Z,98931.22
2022-08-03T13:10:49.683Z,98925.59
2022-08-03T13:13:17.599Z,98931.44
2022-08-03T13:15:48.109Z,98939.34
2022-08-03T13:18:17.342Z,98937.28
2022-08-03T13:20:45.603Z,98931.38
2022-08-03T13:23:22.046Z,98938.34
2022-08-03T13:25:55.668Z,98926.38
2022-08-03T13:28:24.281Z,98922.63
2022-08-03T13:30:54.760Z,98919.22
2022-08-03T13:33:22.707Z,98916.31
2022-08-03T13:35:50.575Z,98924.41
2022-08-03T13:38:18.389Z,98924.84
2022-08-03T13:40:49.493Z,98917.31
2022-08-03T13:43:17.909Z,98920.59
2022-08-03T13:45:51.290Z,98913.06
2022-08-03T13:48:37.291Z,98909.69
2022-08-03T13:51:22.104Z,98910.03
2022-08-03T13:53:51.564Z,98910.47
2022-08-03T13:56:19.380Z,98903.09
2022-08-03T13:58:47.234Z,98895.88
2022-08-03T14:01:15.099Z,98904.91
2022-08-03T14:03:44.254Z,98901.31
2022-08-03T14:06:11.992Z,98901.97
2022-08-03T14:08:39.826Z,98910.75
2022-08-03T14:11:08.600Z,98903.38
2022-08-03T14:13:36.381Z,98901.22
2022-08-03T14:16:09.944Z,98894.22
2022-08-03T14:18:37.879Z,98892.03
2022-08-03T14:21:10.583Z,98899.00
2022-08-03T14:23:38.654Z,98890.41
2022-08-03T14:26:07.228Z,98892.03
2022-08-03T14:28:35.102Z,98879.34
2022-08-03T14:31:03.781Z,98877.31
2022-08-03T14:33:31.733Z,98874.91
2022-08-03T14:35:59.756Z,98869.22
2022-08-03T14:38:28.987Z,98870.72
2022-08-03T14:40:56.787Z,98868.06
2022-08-03T14:43:24.788Z,98869.22
2022-08-03T14:45:53.979Z,98862.59
2022-08-03T14:50:33.249Z,98868.00
2022-08-03T14:51:10.459Z,98860.69
2022-08-03T14:53:39.634Z,98864.38
2022-08-03T14:56:10.349Z,98853.44
2022-08-03T14:58:39.432Z,98856.72
2022-08-03T15:02:04.587Z,98847.06
2022-08-03T15:03:56.352Z,98843.63
2022-08-03T15:06:24.254Z,98845.16
2022-08-03T15:09:21.242Z,98840.72
2022-08-03T15:11:42.092Z,98846.75
2022-08-03T15:14:10.194Z,98838.31
2022-08-03T15:16:41.456Z,98830.41
2022-08-03T15:20:02.416Z,98835.31
2022-08-03T15:21:57.115Z,98827.72
2022-08-03T15:24:30.366Z,98831.50
2022-08-03T15:26:58.170Z,98825.22
2022-08-03T15:30:06.812Z,98822.09
2022-08-03T15:32:13.958Z,98825.84
2022-08-03T15:34:50.438Z,98821.75
2022-08-03T15:37:19.679Z,98822.38
2022-08-03T15:39:58.451Z,98821.38
2022-08-03T15:42:29.556Z,98820.19
2022-08-03T15:44:57.485Z,98813.81
2022-08-03T15:47:25.282Z,98809.88
2022-08-03T15:49:53.043Z,98819.13
2022-08-03T15:52:20.911Z,98817.72
2022-08-03T15:54:50.283Z,98821.78
2022-08-03T15:57:18.286Z,98813.06
2022-08-03T15:59:46.349Z,98813.16
2022-08-03T16:02:14.138Z,98810.78
2022-08-03T16:04:41.996Z,98815.91
2022-08-03T16:07:12.878Z,98805.47
2022-08-03T16:09:42.078Z,98798.00
2022-08-03T16:12:16.264Z,98802.09
2022-08-03T16:14:52.313Z,98800.88
2022-08-03T16:17:20.726Z,98799.22
2022-08-03T16:19:48.811Z,98796.44
2022-08-03T16:22:17.388Z,98793.22
2022-08-03T16:24:47.580Z,98800.78
2022-08-03T16:27:36.619Z,98794.66
2022-08-03T16:30:05.106Z,98792.91
2022-08-03T16:32:32.951Z,98790.38
2022-08-03T16:35:01.266Z,98794.94
2022-08-03T16:37:38.618Z,98790.44
2022-08-03T16:40:19.053Z,98790.59
2022-08-03T16:42:48.799Z,98790.78
2022-08-03T16:45:16.621Z,98789.06
2022-08-03T16:47:44.762Z,98787.31
2022-08-03T16:50:19.032Z,98788.78
2022-08-03T16:52:48.500Z,98785.03
2022-08-03T16:55:18.372Z,98785.16
2022-08-03T16:58:07.334Z,98782.72
2022-08-03T17:00:41.103Z,98781.00
2022-08-03T17:03:18.581Z,98781.59
2022-08-03T17:05:49.562Z,98777.69
2022-08-03T17:08:27.002Z,98778.72
2022-08-03T17:10:56.349Z,98779.38
2022-08-03T17:13:27.672Z,98782.53
2022-08-03T17:16:09.222Z,98782.09
2022-08-03T17:18:49.488Z,98780.66
2022-08-03T17:21:22.972Z,98789.16
2022-08-03T17:23:58.312Z,98786.19
2022-08-03T17:26:30.607Z,98797.03
2022-08-03T17:29:13.216Z,98790.66
2022-08-03T17:31:49.706Z,98790.88
2022-08-03T17:34:18.966Z,98790.09
2022-08-03T17:37:04.799Z,98777.81
2022-08-03T17:39:58.914Z,98788.81
2022-08-03T17:42:38.797Z,98781.78
2022-08-03T17:45:15.592Z,98788.50
2022-08-03T17:47:44.096Z,98786.22
2022-08-03T17:50:25.731Z,98787.84
2022-08-03T17:53:39.588Z,98788.47
2022-08-03T17:56:42.669Z,98786.44
2022-08-03T17:59:44.371Z,98787.97
2022-08-03T18:02:47.638Z,98794.91
2022-08-03T18:05:18.639Z,98797.91
2022-08-03T18:07:59.257Z,98795.47
2022-08-03T18:10:36.166Z,98792.63
2022-08-03T18:13:23.870Z,98798.22
2022-08-03T18:15:59.474Z,98800.38
2022-08-03T18:18:33.342Z,98795.28
2022-08-03T18:21:04.601Z,98801.72
2022-08-03T18:23:36.555Z,98798.59
2022-08-03T18:26:06.789Z,98795.19
2022-08-03T18:28:35.919Z,98800.56
2022-08-03T18:31:05.719Z,98798.66
2022-08-03T18:34:18.020Z,98804.47
2022-08-03T18:36:29.914Z,98806.44
2022-08-03T18:38:59.982Z,98802.63
2022-08-03T18:41:33.427Z,98794.53
2022-08-03T18:44:08.490Z,98801.47
2022-08-03T18:47:08.084Z,98804.13
2022-08-03T18:49:58.247Z,98799.34
2022-08-03T18:52:31.983Z,98802.22
2022-08-03T18:55:19.628Z,98813.34
2022-08-03T18:57:53.261Z,98811.94
2022-08-03T19:00:24.482Z,98815.56
2022-08-03T19:03:12.472Z,98818.00
2022-08-03T19:06:05.908Z,98817.31
2022-08-03T19:08:47.936Z,98816.66
2022-08-03T19:11:27.847Z,98820.25
2022-08-03T19:13:59.249Z,98829.69
2022-08-03T19:16:32.858Z,98824.28
2022-08-03T19:19:03.018Z,98828.41
2022-08-03T19:21:35.724Z,98840.75
2022-08-03T19:24:09.687Z,98821.69
2022-08-03T19:26:39.562Z,98822.56
2022-08-03T19:29:10.817Z,98820.97
2022-08-03T19:31:59.191Z,98827.44
2022-08-03T19:34:29.668Z,98831.09
2022-08-03T19:36:59.788Z,98827.22
2022-08-03T19:39:27.811Z,98835.69
2022-08-03T19:42:20.486Z,98833.38
2022-08-03T19:44:56.525Z,98839.63
2022-08-03T19:47:31.570Z,98834.22
2022-08-03T19:50:10.414Z,98846.16
2022-08-03T19:52:48.209Z,98831.75
2022-08-03T19:55:18.261Z,98832.97
2022-08-03T19:57:49.214Z,98833.31
2022-08-03T20:00:26.595Z,98834.53
2022-08-03T20:02:55.032Z,98839.38
2022-08-03T20:05:22.957Z,98830.81
2022-08-03T20:07:53.433Z,98835.09
2022-08-03T20:10:22.206Z,98834.16
2022-08-03T20:12:50.814Z,98830.81
2022-08-03T20:15:30.936Z,98836.53
2022-08-03T20:18:00.615Z,98831.31
2022-08-03T20:20:31.875Z,98836.56
2022-08-03T20:23:06.867Z,98842.16
2022-08-03T20:25:48.924Z,98841.06
2022-08-03T20:28:31.727Z,98833.56
2022-08-03T20:31:00.117Z,98829.06
2022-08-03T20:33:45.884Z,98825.28
2022-08-03T20:36:17.813Z,98828.84
2022-08-03T20:38:48.209Z,98834.56
2022-08-03T20:41:16.473Z,98833.00
2022-08-03T20:43:44.442Z,98827.22
2022-08-03T20:46:31.756Z,98833.94
2022-08-03T20:49:00.231Z,98822.09
2022-08-03T20:51:49.025Z,98816.13
2022-08-03T20:54:30.906Z,98827.75
2022-08-03T20:57:00.779Z,98836.84
2022-08-03T20:59:47.364Z,98828.38
2022-08-03T21:02:29.619Z,98824.47
2022-08-03T21:05:02.819Z,98829.75
2022-08-03T21:08:04.062Z,98830.13
2022-08-03T21:10:28.528Z,98830.56
2022-08-03T21:13:16.003Z,98831.41
2022-08-03T21:16:06.516Z,98824.56
2022-08-03T21:18:38.038Z,98828.41
2022-08-03T21:21:07.817Z,98830.59
2022-08-03T21:23:47.567Z,98827.94
2022-08-03T21:26:19.803Z,98838.59
2022-08-03T21:28:48.515Z,98831.81
2022-08-03T21:31:24.328Z,98841.78
2022-08-03T21:33:55.833Z,98836.66
2022-08-03T21:36:23.745Z,98839.44
2022-08-03T21:38:56.861Z,98835.69
2022-08-03T21:41:27.929Z,98838.59
2022-08-03T21:43:55.969Z,98840.22
2022-08-03T21:46:25.013Z,98837.16
2022-08-03T21:48:56.262Z,98830.97
2022-08-03T21:51:27.257Z,98841.03
2022-08-03T21:54:02.639Z,98837.19
2022-08-03T21:56:41.502Z,98834.78
2022-08-03T21:59:16.814Z,98838.94
2022-08-03T22:01:49.013Z,98838.16
2022-08-03T22:04:50.351Z,98839.84
2022-08-03T22:07:08.480Z,98835.91
2022-08-03T22:09:36.715Z,98834.66
2022-08-03T22:12:06.946Z,98833.34
2022-08-03T22:14:34.823Z,98837.72
2022-08-03T22:17:06.240Z,98837.19
2022-08-03T22:19:35.218Z,98843.63
2022-08-03T22:22:06.138Z,98842.84
2022-08-03T22:24:37.206Z,98841.63
2022-08-03T22:27:24.233Z,98842.13
2022-08-03T22:29:53.895Z,98842.59
2022-08-03T22:32:21.679Z,98851.91
2022-08-03T22:34:50.447Z,98851.13
2022-08-03T22:37:21.088Z,98847.91
2022-08-03T22:39:50.670Z,98847.16
2022-08-03T22:42:21.050Z,98847.59
2022-08-03T22:44:50.482Z,98857.41
2022-08-03T22:47:22.564Z,98864.84
2022-08-03T22:50:31.209Z,98858.84
2022-08-03T22:52:41.986Z,98852.16
2022-08-03T22:55:13.130Z,98855.25
2022-08-03T22:57:56.185Z,98853.69
2022-08-03T23:00:24.741Z,98849.75
2022-08-03T23:02:55.021Z,98858.47
2022-08-03T23:06:00.476Z,98866.16
2022-08-03T23:08:15.432Z,98854.09
2022-08-03T23:10:47.042Z,98850.53
2022-08-03T23:13:18.223Z,98859.53
2022-08-03T23:15:53.531Z,98863.50
2022-08-03T23:18:22.437Z,98855.81
2022-08-03T23:20:51.328Z,98855.00
2022-08-03T23:23:20.731Z,98865.63
2022-08-03T23:25:50.370Z,98856.53
2022-08-03T23:28:19.973Z,98851.06
2022-08-03T23:30:50.997Z,98854.78
2022-08-03T23:33:19.051Z,98857.69
2022-08-03T23:36:29.005Z,98856.44
2022-08-03T23:38:47.040Z,98872.56
2022-08-03T23:41:17.647Z,98874.81
2022-08-03T23:43:53.861Z,98878.28
2022-08-03T23:46:22.627Z,98880.22
2022-08-03T23:48:51.379Z,98871.13
2022-08-03T23:51:27.566Z,98881.69
2022-08-03T23:54:02.214Z,98879.59
2022-08-03T23:56:38.354Z,98876.75
2022-08-03T23:59:15.134Z,98874.44
